Terminal Aerodrome Forecast
Issued by NWS Lake Charles, LA

Home | Current Version | Previous Version | Text Only | Print | Product List | Glossary On
Versions: 1 2 3 4 5 6 7 8 9 10 11 12 13 14 15 16 17 18
878
FTUS44 KLCH 221130
TAFLFT
TAF
KLFT 221130Z 2212/2312 16015G25KT P6SM -SHRA VCTS BKN040CB
      TEMPO 2212/2216 2SM SHRA BKN020
     FM221800 20016G23KT P6SM -SHRA VCTS SCT015 BKN025CB
     FM230000 18012G18KT P6SM VCSH BKN035=

USA.gov is the U.S. government's official web portal to all federal, state and local government web resources and services.